sensor_id;sensor_type;location;lat;lon;timestamp;temperature;humidity
592;DHT22;283;53.608;10.046;2022-09-09T00:01:49;15.80;99.90
592;DHT22;283;53.608;10.046;2022-09-09T00:04:26;15.90;99.90
592;DHT22;283;53.608;10.046;2022-09-09T00:07:04;16.00;99.90
592;DHT22;283;53.608;10.046;2022-09-09T00:09:40;16.00;99.90
592;DHT22;283;53.608;10.046;2022-09-09T00:12:14;16.10;99.90
592;DHT22;283;53.608;10.046;2022-09-09T00:14:48;16.10;99.90
592;DHT22;283;53.608;10.046;2022-09-09T00:17:30;16.20;99.90
592;DHT22;283;53.608;10.046;2022-09-09T00:20:03;16.20;99.90
592;DHT22;283;53.608;10.046;2022-09-09T00:22:36;16.30;99.90
592;DHT22;283;53.608;10.046;2022-09-09T00:25:11;16.30;99.90
592;DHT22;283;53.608;10.046;2022-09-09T00:27:45;16.30;99.90
592;DHT22;283;53.608;10.046;2022-09-09T00:30:16;16.40;99.90
592;DHT22;283;53.608;10.046;2022-09-09T00:32:46;16.40;99.90
592;DHT22;283;53.608;10.046;2022-09-09T00:35:18;16.40;99.90
592;DHT22;283;53.608;10.046;2022-09-09T00:37:52;16.50;99.90
592;DHT22;283;53.608;10.046;2022-09-09T00:40:26;16.50;99.90
592;DHT22;283;53.608;10.046;2022-09-09T00:43:09;16.50;99.90
592;DHT22;283;53.608;10.046;2022-09-09T00:45:56;16.60;99.90
592;DHT22;283;53.608;10.046;2022-09-09T00:48:34;16.60;99.90
592;DHT22;283;53.608;10.046;2022-09-09T00:51:08;16.60;99.90
592;DHT22;283;53.608;10.046;2022-09-09T00:53:54;16.60;99.90
592;DHT22;283;53.608;10.046;2022-09-09T00:56:27;16.70;99.90
592;DHT22;283;53.608;10.046;2022-09-09T00:59:02;16.60;99.90
592;DHT22;283;53.608;10.046;2022-09-09T01:01:34;16.60;99.90
592;DHT22;283;53.608;10.046;2022-09-09T01:04:07;16.60;99.90
592;DHT22;283;53.608;10.046;2022-09-09T01:06:37;16.60;99.90
592;DHT22;283;53.608;10.046;2022-09-09T01:09:16;16.70;99.90
592;DHT22;283;53.608;10.046;2022-09-09T01:11:55;16.70;99.90
592;DHT22;283;53.608;10.046;2022-09-09T01:14:38;16.60;99.90
592;DHT22;283;53.608;10.046;2022-09-09T01:17:12;16.60;99.90
592;DHT22;283;53.608;10.046;2022-09-09T01:19:54;16.60;99.90
592;DHT22;283;53.608;10.046;2022-09-09T01:22:31;16.60;99.90
592;DHT22;283;53.608;10.046;2022-09-09T01:25:20;16.60;99.90
592;DHT22;283;53.608;10.046;2022-09-09T01:27:51;16.60;99.90
592;DHT22;283;53.608;10.046;2022-09-09T01:30:21;16.60;99.90
592;DHT22;283;53.608;10.046;2022-09-09T01:32:52;16.60;99.90
592;DHT22;283;53.608;10.046;2022-09-09T01:35:33;16.60;99.90
592;DHT22;283;53.608;10.046;2022-09-09T01:38:03;16.60;99.90
592;DHT22;283;53.608;10.046;2022-09-09T01:40:31;16.50;99.90
592;DHT22;283;53.608;10.046;2022-09-09T01:43:01;16.50;99.90
592;DHT22;283;53.608;10.046;2022-09-09T01:45:29;16.50;99.90
592;DHT22;283;53.608;10.046;2022-09-09T01:47:58;16.50;99.90
592;DHT22;283;53.608;10.046;2022-09-09T01:50:27;16.50;99.90
592;DHT22;283;53.608;10.046;2022-09-09T01:52:57;16.50;99.90
592;DHT22;283;53.608;10.046;2022-09-09T01:55:29;16.40;99.90
592;DHT22;283;53.608;10.046;2022-09-09T01:58:12;16.40;99.90
592;DHT22;283;53.608;10.046;2022-09-09T02:00:45;16.40;99.90
592;DHT22;283;53.608;10.046;2022-09-09T02:03:24;16.40;99.90
592;DHT22;283;53.608;10.046;2022-09-09T02:05:58;16.30;99.90
592;DHT22;283;53.608;10.046;2022-09-09T02:08:35;16.30;99.90
592;DHT22;283;53.608;10.046;2022-09-09T02:11:06;16.30;99.90
592;DHT22;283;53.608;10.046;2022-09-09T02:13:38;16.20;99.90
592;DHT22;283;53.608;10.046;2022-09-09T02:22:11;16.20;99.90
592;DHT22;283;53.608;10.046;2022-09-09T02:24:40;16.10;99.90
592;DHT22;283;53.608;10.046;2022-09-09T02:27:09;16.20;99.90
592;DHT22;283;53.608;10.046;2022-09-09T02:29:40;16.10;99.90
592;DHT22;283;53.608;10.046;2022-09-09T02:32:11;16.20;99.90
592;DHT22;283;53.608;10.046;2022-09-09T02:34:44;16.20;99.90
592;DHT22;283;53.608;10.046;2022-09-09T02:37:15;16.20;99.90
592;DHT22;283;53.608;10.046;2022-09-09T02:39:45;16.20;99.90
592;DHT22;283;53.608;10.046;2022-09-09T02:42:13;16.20;99.90
592;DHT22;283;53.608;10.046;2022-09-09T02:44:44;16.20;99.90
592;DHT22;283;53.608;10.046;2022-09-09T02:47:27;16.20;99.90
592;DHT22;283;53.608;10.046;2022-09-09T02:50:05;16.20;99.90
592;DHT22;283;53.608;10.046;2022-09-09T02:52:45;16.10;99.90
592;DHT22;283;53.608;10.046;2022-09-09T02:55:19;16.10;99.90
592;DHT22;283;53.608;10.046;2022-09-09T02:57:49;16.10;99.90
592;DHT22;283;53.608;10.046;2022-09-09T03:00:24;16.10;99.90
592;DHT22;283;53.608;10.046;2022-09-09T03:02:52;16.00;99.90
592;DHT22;283;53.608;10.046;2022-09-09T03:05:21;16.00;99.90
592;DHT22;283;53.608;10.046;2022-09-09T03:07:49;16.00;99.90
592;DHT22;283;53.608;10.046;2022-09-09T03:10:17;16.00;99.90
592;DHT22;283;53.608;10.046;2022-09-09T03:12:45;15.90;99.90
592;DHT22;283;53.608;10.046;2022-09-09T03:15:13;16.00;99.90
592;DHT22;283;53.608;10.046;2022-09-09T03:17:43;15.90;99.90
592;DHT22;283;53.608;10.046;2022-09-09T03:20:11;15.90;99.90
592;DHT22;283;53.608;10.046;2022-09-09T03:22:39;15.80;99.90
592;DHT22;283;53.608;10.046;2022-09-09T03:25:07;15.80;99.90
592;DHT22;283;53.608;10.046;2022-09-09T03:27:35;15.80;99.90
592;DHT22;283;53.608;10.046;2022-09-09T03:30:04;15.70;99.90
592;DHT22;283;53.608;10.046;2022-09-09T03:32:32;15.70;99.90
592;DHT22;283;53.608;10.046;2022-09-09T03:35:01;15.60;99.90
592;DHT22;283;53.608;10.046;2022-09-09T03:37:29;15.60;99.90
592;DHT22;283;53.608;10.046;2022-09-09T03:39:58;15.60;99.90
592;DHT22;283;53.608;10.046;2022-09-09T03:42:26;15.60;99.90
592;DHT22;283;53.608;10.046;2022-09-09T03:44:54;15.60;99.90
592;DHT22;283;53.608;10.046;2022-09-09T03:47:24;15.60;99.90
592;DHT22;283;53.608;10.046;2022-09-09T03:49:52;15.50;99.90
592;DHT22;283;53.608;10.046;2022-09-09T03:52:21;15.60;99.90
592;DHT22;283;53.608;10.046;2022-09-09T03:54:51;15.60;99.90
592;DHT22;283;53.608;10.046;2022-09-09T03:57:20;15.60;99.90
592;DHT22;283;53.608;10.046;2022-09-09T03:59:48;15.60;99.90
592;DHT22;283;53.608;10.046;2022-09-09T04:02:16;15.60;99.90
592;DHT22;283;53.608;10.046;2022-09-09T04:04:44;15.70;99.90
592;DHT22;283;53.608;10.046;2022-09-09T04:07:11;15.70;99.90
592;DHT22;283;53.608;10.046;2022-09-09T04:09:41;15.70;99.90
592;DHT22;283;53.608;10.046;2022-09-09T04:12:09;15.70;99.90
592;DHT22;283;53.608;10.046;2022-09-09T04:14:39;15.70;99.90
592;DHT22;283;53.608;10.046;2022-09-09T04:17:08;15.70;99.90
592;DHT22;283;53.608;10.046;2022-09-09T04:19:35;15.70;99.90
592;DHT22;283;53.608;10.046;2022-09-09T04:22:03;15.70;99.90
592;DHT22;283;53.608;10.046;2022-09-09T04:24:32;15.60;99.90
592;DHT22;283;53.608;10.046;2022-09-09T04:27:01;15.60;99.90
592;DHT22;283;53.608;10.046;2022-09-09T04:29:29;15.60;99.90
592;DHT22;283;53.608;10.046;2022-09-09T04:32:00;15.50;99.90
592;DHT22;283;53.608;10.046;2022-09-09T04:34:28;15.40;99.90
592;DHT22;283;53.608;10.046;2022-09-09T04:36:57;15.30;99.90
592;DHT22;283;53.608;10.046;2022-09-09T04:39:25;15.20;99.90
592;DHT22;283;53.608;10.046;2022-09-09T04:41:53;15.20;99.90
592;DHT22;283;53.608;10.046;2022-09-09T04:44:23;15.10;99.90
592;DHT22;283;53.608;10.046;2022-09-09T04:46:51;15.10;99.90
592;DHT22;283;53.608;10.046;2022-09-09T04:49:22;15.10;99.90
592;DHT22;283;53.608;10.046;2022-09-09T04:51:50;15.10;99.90
592;DHT22;283;53.608;10.046;2022-09-09T04:54:18;15.20;99.90
592;DHT22;283;53.608;10.046;2022-09-09T04:56:46;15.20;99.90
592;DHT22;283;53.608;10.046;2022-09-09T04:59:18;15.30;99.90
592;DHT22;283;53.608;10.046;2022-09-09T05:01:50;15.40;99.90
592;DHT22;283;53.608;10.046;2022-09-09T05:04:18;15.40;99.90
592;DHT22;283;53.608;10.046;2022-09-09T05:06:46;15.50;99.90
592;DHT22;283;53.608;10.046;2022-09-09T05:09:14;15.60;99.90
592;DHT22;283;53.608;10.046;2022-09-09T05:11:42;15.60;99.90
592;DHT22;283;53.608;10.046;2022-09-09T05:14:13;15.60;99.90
592;DHT22;283;53.608;10.046;2022-09-09T05:16:42;15.60;99.90
592;DHT22;283;53.608;10.046;2022-09-09T05:19:12;15.70;99.90
592;DHT22;283;53.608;10.046;2022-09-09T05:21:40;15.70;99.90
592;DHT22;283;53.608;10.046;2022-09-09T05:24:08;15.60;99.90
592;DHT22;283;53.608;10.046;2022-09-09T05:26:38;15.60;99.90
592;DHT22;283;53.608;10.046;2022-09-09T05:29:06;15.60;99.90
592;DHT22;283;53.608;10.046;2022-09-09T05:31:34;15.60;99.90
592;DHT22;283;53.608;10.046;2022-09-09T05:34:03;15.60;99.90
592;DHT22;283;53.608;10.046;2022-09-09T05:36:32;15.50;99.90
592;DHT22;283;53.608;10.046;2022-09-09T05:39:00;15.50;99.90
592;DHT22;283;53.608;10.046;2022-09-09T05:41:28;15.50;99.90
592;DHT22;283;53.608;10.046;2022-09-09T05:43:58;15.40;99.90
592;DHT22;283;53.608;10.046;2022-09-09T05:46:27;15.40;99.90
592;DHT22;283;53.608;10.046;2022-09-09T05:48:56;15.40;99.90
592;DHT22;283;53.608;10.046;2022-09-09T05:51:27;15.40;99.90
592;DHT22;283;53.608;10.046;2022-09-09T05:53:58;15.40;99.90
592;DHT22;283;53.608;10.046;2022-09-09T05:56:27;15.50;99.90
592;DHT22;283;53.608;10.046;2022-09-09T05:58:57;15.50;99.90
592;DHT22;283;53.608;10.046;2022-09-09T06:01:28;15.50;99.90
592;DHT22;283;53.608;10.046;2022-09-09T06:03:57;15.50;99.90
592;DHT22;283;53.608;10.046;2022-09-09T06:06:27;15.60;99.90
592;DHT22;283;53.608;10.046;2022-09-09T06:08:57;15.60;99.90
592;DHT22;283;53.608;10.046;2022-09-09T06:11:27;15.70;99.90
592;DHT22;283;53.608;10.046;2022-09-09T06:13:58;15.70;99.90
592;DHT22;283;53.608;10.046;2022-09-09T06:16:27;15.70;99.90
592;DHT22;283;53.608;10.046;2022-09-09T06:18:56;15.90;99.90
592;DHT22;283;53.608;10.046;2022-09-09T06:21:28;15.90;99.90
592;DHT22;283;53.608;10.046;2022-09-09T06:23:58;16.10;99.90
592;DHT22;283;53.608;10.046;2022-09-09T06:26:29;16.20;99.90
592;DHT22;283;53.608;10.046;2022-09-09T06:28:59;16.30;99.90
592;DHT22;283;53.608;10.046;2022-09-09T06:31:31;16.40;99.90
592;DHT22;283;53.608;10.046;2022-09-09T06:34:02;16.40;99.90
592;DHT22;283;53.608;10.046;2022-09-09T06:36:34;16.50;99.90
592;DHT22;283;53.608;10.046;2022-09-09T06:39:05;16.50;99.90
592;DHT22;283;53.608;10.046;2022-09-09T06:41:40;16.60;99.90
592;DHT22;283;53.608;10.046;2022-09-09T06:44:11;16.60;99.90
592;DHT22;283;53.608;10.046;2022-09-09T06:46:40;16.70;99.90
592;DHT22;283;53.608;10.046;2022-09-09T06:49:08;16.70;99.90
592;DHT22;283;53.608;10.046;2022-09-09T06:51:37;16.70;99.90
592;DHT22;283;53.608;10.046;2022-09-09T06:54:11;16.80;99.90
592;DHT22;283;53.608;10.046;2022-09-09T06:56:41;16.80;99.90
592;DHT22;283;53.608;10.046;2022-09-09T06:59:10;16.70;99.90
592;DHT22;283;53.608;10.046;2022-09-09T07:01:40;16.80;99.90
592;DHT22;283;53.608;10.046;2022-09-09T07:04:09;16.80;99.90
592;DHT22;283;53.608;10.046;2022-09-09T07:06:39;16.80;99.90
592;DHT22;283;53.608;10.046;2022-09-09T07:09:17;16.80;99.90
592;DHT22;283;53.608;10.046;2022-09-09T07:11:47;16.80;99.90
592;DHT22;283;53.608;10.046;2022-09-09T07:14:17;16.90;99.90
592;DHT22;283;53.608;10.046;2022-09-09T07:16:46;17.00;99.90
592;DHT22;283;53.608;10.046;2022-09-09T07:19:14;17.20;99.90
592;DHT22;283;53.608;10.046;2022-09-09T07:21:43;17.40;99.90
592;DHT22;283;53.608;10.046;2022-09-09T07:24:12;17.50;99.90
592;DHT22;283;53.608;10.046;2022-09-09T07:29:48;17.50;99.90
592;DHT22;283;53.608;10.046;2022-09-09T07:32:15;17.50;99.90
592;DHT22;283;53.608;10.046;2022-09-09T07:34:44;17.50;99.90
592;DHT22;283;53.608;10.046;2022-09-09T07:37:12;17.50;99.90
592;DHT22;283;53.608;10.046;2022-09-09T07:39:41;17.50;99.90
592;DHT22;283;53.608;10.046;2022-09-09T07:42:10;17.60;99.90
592;DHT22;283;53.608;10.046;2022-09-09T07:44:39;17.50;99.90
592;DHT22;283;53.608;10.046;2022-09-09T07:47:10;17.50;99.90
592;DHT22;283;53.608;10.046;2022-09-09T07:49:38;17.60;99.90
592;DHT22;283;53.608;10.046;2022-09-09T07:52:07;17.70;99.90
592;DHT22;283;53.608;10.046;2022-09-09T07:54:35;17.80;99.90
592;DHT22;283;53.608;10.046;2022-09-09T07:57:03;18.00;99.90
592;DHT22;283;53.608;10.046;2022-09-09T07:59:32;18.20;99.90
592;DHT22;283;53.608;10.046;2022-09-09T08:02:00;18.40;99.90
592;DHT22;283;53.608;10.046;2022-09-09T08:04:28;18.50;99.90
592;DHT22;283;53.608;10.046;2022-09-09T08:06:58;18.60;99.90
592;DHT22;283;53.608;10.046;2022-09-09T08:09:26;18.70;99.90
592;DHT22;283;53.608;10.046;2022-09-09T08:11:56;18.80;99.90
592;DHT22;283;53.608;10.046;2022-09-09T08:14:24;18.80;99.90
592;DHT22;283;53.608;10.046;2022-09-09T08:16:54;18.90;99.90
592;DHT22;283;53.608;10.046;2022-09-09T08:19:22;18.90;99.90
592;DHT22;283;53.608;10.046;2022-09-09T08:21:51;18.90;99.90
592;DHT22;283;53.608;10.046;2022-09-09T08:24:19;18.80;99.90
592;DHT22;283;53.608;10.046;2022-09-09T08:26:48;18.90;99.90
592;DHT22;283;53.608;10.046;2022-09-09T08:29:16;18.90;99.90
592;DHT22;283;53.608;10.046;2022-09-09T08:31:46;18.90;99.90
592;DHT22;283;53.608;10.046;2022-09-09T08:34:16;19.00;99.90
592;DHT22;283;53.608;10.046;2022-09-09T08:36:45;19.10;99.90
592;DHT22;283;53.608;10.046;2022-09-09T08:39:16;19.10;99.90
592;DHT22;283;53.608;10.046;2022-09-09T08:42:13;19.10;99.90
592;DHT22;283;53.608;10.046;2022-09-09T08:45:00;19.10;99.90
592;DHT22;283;53.608;10.046;2022-09-09T08:47:35;19.10;99.90
592;DHT22;283;53.608;10.046;2022-09-09T08:50:15;19.00;99.90
592;DHT22;283;53.608;10.046;2022-09-09T08:52:51;19.00;99.90
592;DHT22;283;53.608;10.046;2022-09-09T08:55:24;19.00;99.90
592;DHT22;283;53.608;10.046;2022-09-09T08:57:57;18.90;99.90
592;DHT22;283;53.608;10.046;2022-09-09T09:00:33;18.90;99.90
592;DHT22;283;53.608;10.046;2022-09-09T09:03:09;19.00;99.90
592;DHT22;283;53.608;10.046;2022-09-09T09:05:47;19.00;99.90
592;DHT22;283;53.608;10.046;2022-09-09T09:08:24;19.00;99.90
592;DHT22;283;53.608;10.046;2022-09-09T09:10:56;19.00;99.90
592;DHT22;283;53.608;10.046;2022-09-09T09:13:32;19.00;99.90
592;DHT22;283;53.608;10.046;2022-09-09T09:16:14;19.10;99.90
592;DHT22;283;53.608;10.046;2022-09-09T09:18:44;19.10;99.90
592;DHT22;283;53.608;10.046;2022-09-09T09:21:17;19.20;99.90
592;DHT22;283;53.608;10.046;2022-09-09T09:23:54;19.30;99.90
592;DHT22;283;53.608;10.046;2022-09-09T09:26:25;19.40;99.90
592;DHT22;283;53.608;10.046;2022-09-09T09:28:58;19.50;99.90
592;DHT22;283;53.608;10.046;2022-09-09T09:31:26;19.60;99.90
592;DHT22;283;53.608;10.046;2022-09-09T09:33:55;19.70;99.90
592;DHT22;283;53.608;10.046;2022-09-09T09:36:34;19.70;99.90
592;DHT22;283;53.608;10.046;2022-09-09T09:39:03;19.70;99.90
592;DHT22;283;53.608;10.046;2022-09-09T09:41:52;19.80;99.90
592;DHT22;283;53.608;10.046;2022-09-09T09:44:25;19.80;99.90
592;DHT22;283;53.608;10.046;2022-09-09T09:47:06;19.90;99.90
592;DHT22;283;53.608;10.046;2022-09-09T09:49:34;19.90;99.90
592;DHT22;283;53.608;10.046;2022-09-09T09:52:05;20.10;99.90
592;DHT22;283;53.608;10.046;2022-09-09T09:54:37;20.20;99.90
592;DHT22;283;53.608;10.046;2022-09-09T09:57:09;20.40;99.90
592;DHT22;283;53.608;10.046;2022-09-09T09:59:38;20.60;99.90
592;DHT22;283;53.608;10.046;2022-09-09T10:02:18;20.80;99.90
592;DHT22;283;53.608;10.046;2022-09-09T10:04:47;20.90;99.90
592;DHT22;283;53.608;10.046;2022-09-09T10:07:19;21.00;99.90
592;DHT22;283;53.608;10.046;2022-09-09T10:09:52;21.10;99.90
592;DHT22;283;53.608;10.046;2022-09-09T10:12:30;21.20;99.90
592;DHT22;283;53.608;10.046;2022-09-09T10:15:06;21.20;99.90
592;DHT22;283;53.608;10.046;2022-09-09T10:17:40;21.20;99.90
592;DHT22;283;53.608;10.046;2022-09-09T10:20:24;21.10;99.90
592;DHT22;283;53.608;10.046;2022-09-09T10:23:06;21.00;99.90
592;DHT22;283;53.608;10.046;2022-09-09T10:25:53;20.90;99.90
592;DHT22;283;53.608;10.046;2022-09-09T10:28:37;20.70;99.90
592;DHT22;283;53.608;10.046;2022-09-09T10:31:19;20.60;99.90
592;DHT22;283;53.608;10.046;2022-09-09T10:34:03;20.50;99.90
592;DHT22;283;53.608;10.046;2022-09-09T10:36:34;20.40;99.90
592;DHT22;283;53.608;10.046;2022-09-09T10:39:18;20.40;99.90
592;DHT22;283;53.608;10.046;2022-09-09T10:41:57;20.30;99.90
592;DHT22;283;53.608;10.046;2022-09-09T10:44:42;20.30;99.90
592;DHT22;283;53.608;10.046;2022-09-09T10:47:43;20.30;99.90
592;DHT22;283;53.608;10.046;2022-09-09T10:50:37;20.20;99.90
592;DHT22;283;53.608;10.046;2022-09-09T10:53:35;20.30;99.90
592;DHT22;283;53.608;10.046;2022-09-09T10:56:08;20.40;99.90
592;DHT22;283;53.608;10.046;2022-09-09T10:58:40;20.40;99.90
592;DHT22;283;53.608;10.046;2022-09-09T11:01:15;20.50;99.90
592;DHT22;283;53.608;10.046;2022-09-09T11:03:49;20.50;99.90
592;DHT22;283;53.608;10.046;2022-09-09T11:06:22;20.60;99.90
592;DHT22;283;53.608;10.046;2022-09-09T11:08:52;20.70;99.90
592;DHT22;283;53.608;10.046;2022-09-09T11:11:29;20.70;99.90
592;DHT22;283;53.608;10.046;2022-09-09T11:14:02;20.60;99.90
592;DHT22;283;53.608;10.046;2022-09-09T11:16:38;20.50;99.90
592;DHT22;283;53.608;10.046;2022-09-09T11:19:14;20.40;99.90
592;DHT22;283;53.608;10.046;2022-09-09T11:21:45;20.40;99.90
592;DHT22;283;53.608;10.046;2022-09-09T11:24:16;20.40;99.90
592;DHT22;283;53.608;10.046;2022-09-09T11:26:50;20.40;99.90
592;DHT22;283;53.608;10.046;2022-09-09T11:29:51;20.40;99.90
592;DHT22;283;53.608;10.046;2022-09-09T11:32:40;20.40;99.90
592;DHT22;283;53.608;10.046;2022-09-09T11:35:27;20.40;99.90
592;DHT22;283;53.608;10.046;2022-09-09T11:40:55;20.60;99.90
592;DHT22;283;53.608;10.046;2022-09-09T11:43:30;20.70;99.90
592;DHT22;283;53.608;10.046;2022-09-09T11:46:01;20.90;99.90
592;DHT22;283;53.608;10.046;2022-09-09T11:48:33;21.10;99.90
592;DHT22;283;53.608;10.046;2022-09-09T11:51:05;21.40;99.90
592;DHT22;283;53.608;10.046;2022-09-09T11:53:49;21.50;99.90
592;DHT22;283;53.608;10.046;2022-09-09T11:56:30;21.70;99.90
592;DHT22;283;53.608;10.046;2022-09-09T11:59:05;21.80;99.90
592;DHT22;283;53.608;10.046;2022-09-09T12:01:38;22.00;99.90
592;DHT22;283;53.608;10.046;2022-09-09T12:04:15;22.00;99.90
592;DHT22;283;53.608;10.046;2022-09-09T12:06:51;21.90;99.90
592;DHT22;283;53.608;10.046;2022-09-09T12:09:25;21.90;99.90
592;DHT22;283;53.608;10.046;2022-09-09T12:12:05;21.90;99.90
592;DHT22;283;53.608;10.046;2022-09-09T12:14:43;22.00;99.90
592;DHT22;283;53.608;10.046;2022-09-09T12:17:19;22.20;99.90
592;DHT22;283;53.608;10.046;2022-09-09T12:19:47;22.40;99.90
592;DHT22;283;53.608;10.046;2022-09-09T12:22:22;22.40;99.90
592;DHT22;283;53.608;10.046;2022-09-09T12:24:58;22.30;99.90
592;DHT22;283;53.608;10.046;2022-09-09T12:27:35;22.20;99.90
592;DHT22;283;53.608;10.046;2022-09-09T12:30:09;22.20;99.90
592;DHT22;283;53.608;10.046;2022-09-09T12:32:38;22.10;99.90
592;DHT22;283;53.608;10.046;2022-09-09T12:35:11;22.10;99.90
592;DHT22;283;53.608;10.046;2022-09-09T12:37:42;22.00;99.90
592;DHT22;283;53.608;10.046;2022-09-09T12:40:20;21.90;99.90
592;DHT22;283;53.608;10.046;2022-09-09T12:42:48;21.80;99.90
592;DHT22;283;53.608;10.046;2022-09-09T12:45:20;21.70;99.90
592;DHT22;283;53.608;10.046;2022-09-09T12:47:55;21.70;99.90
592;DHT22;283;53.608;10.046;2022-09-09T12:50:25;21.60;99.90
592;DHT22;283;53.608;10.046;2022-09-09T12:52:55;21.70;99.90
592;DHT22;283;53.608;10.046;2022-09-09T12:55:28;21.70;99.90
592;DHT22;283;53.608;10.046;2022-09-09T12:57:58;21.70;99.90
592;DHT22;283;53.608;10.046;2022-09-09T13:00:28;21.70;99.90
592;DHT22;283;53.608;10.046;2022-09-09T13:02:58;21.70;99.90
592;DHT22;283;53.608;10.046;2022-09-09T13:05:28;21.70;99.90
592;DHT22;283;53.608;10.046;2022-09-09T13:08:02;21.60;99.90
592;DHT22;283;53.608;10.046;2022-09-09T13:10:33;21.40;99.90
592;DHT22;283;53.608;10.046;2022-09-09T13:13:21;21.30;99.90
592;DHT22;283;53.608;10.046;2022-09-09T13:15:53;21.20;99.90
592;DHT22;283;53.608;10.046;2022-09-09T13:18:24;21.10;99.90
592;DHT22;283;53.608;10.046;2022-09-09T13:20:54;20.90;99.90
592;DHT22;283;53.608;10.046;2022-09-09T13:23:27;20.80;99.90
592;DHT22;283;53.608;10.046;2022-09-09T13:25:57;20.60;99.90
592;DHT22;283;53.608;10.046;2022-09-09T13:28:27;20.50;99.90
592;DHT22;283;53.608;10.046;2022-09-09T13:31:02;20.40;99.90
592;DHT22;283;53.608;10.046;2022-09-09T13:33:33;20.30;99.90
592;DHT22;283;53.608;10.046;2022-09-09T13:36:06;20.20;99.90
592;DHT22;283;53.608;10.046;2022-09-09T13:38:37;20.10;99.90
592;DHT22;283;53.608;10.046;2022-09-09T13:41:18;20.10;99.90
592;DHT22;283;53.608;10.046;2022-09-09T13:43:48;20.00;99.90
592;DHT22;283;53.608;10.046;2022-09-09T13:46:31;19.90;99.90
592;DHT22;283;53.608;10.046;2022-09-09T13:49:01;19.80;99.90
592;DHT22;283;53.608;10.046;2022-09-09T13:51:33;19.70;99.90
592;DHT22;283;53.608;10.046;2022-09-09T13:54:04;19.60;99.90
592;DHT22;283;53.608;10.046;2022-09-09T13:56:33;19.60;99.90
592;DHT22;283;53.608;10.046;2022-09-09T13:59:02;19.50;99.90
592;DHT22;283;53.608;10.046;2022-09-09T14:01:31;19.50;99.90
592;DHT22;283;53.608;10.046;2022-09-09T14:04:01;19.40;99.90
592;DHT22;283;53.608;10.046;2022-09-09T14:06:29;19.30;99.90
592;DHT22;283;53.608;10.046;2022-09-09T14:08:58;19.20;99.90
592;DHT22;283;53.608;10.046;2022-09-09T14:11:26;19.20;99.90
592;DHT22;283;53.608;10.046;2022-09-09T14:13:54;19.10;99.90
592;DHT22;283;53.608;10.046;2022-09-09T14:16:22;19.00;99.90
592;DHT22;283;53.608;10.046;2022-09-09T14:18:51;19.00;99.90
592;DHT22;283;53.608;10.046;2022-09-09T14:21:19;18.90;99.90
592;DHT22;283;53.608;10.046;2022-09-09T14:23:48;18.90;99.90
592;DHT22;283;53.608;10.046;2022-09-09T14:26:16;18.90;99.90
592;DHT22;283;53.608;10.046;2022-09-09T14:28:48;18.90;99.90
592;DHT22;283;53.608;10.046;2022-09-09T14:31:21;18.80;99.90
592;DHT22;283;53.608;10.046;2022-09-09T14:33:50;18.80;99.90
592;DHT22;283;53.608;10.046;2022-09-09T14:36:21;18.80;99.90
592;DHT22;283;53.608;10.046;2022-09-09T14:38:50;18.80;99.90
592;DHT22;283;53.608;10.046;2022-09-09T14:41:19;18.80;99.90
592;DHT22;283;53.608;10.046;2022-09-09T14:43:49;18.80;99.90
592;DHT22;283;53.608;10.046;2022-09-09T14:46:18;18.80;99.90
592;DHT22;283;53.608;10.046;2022-09-09T14:48:47;18.80;99.90
592;DHT22;283;53.608;10.046;2022-09-09T14:51:17;18.70;99.90
592;DHT22;283;53.608;10.046;2022-09-09T14:53:50;18.60;99.90
592;DHT22;283;53.608;10.046;2022-09-09T14:56:21;18.60;99.90
592;DHT22;283;53.608;10.046;2022-09-09T14:58:50;18.60;99.90
592;DHT22;283;53.608;10.046;2022-09-09T15:01:20;18.50;99.90
592;DHT22;283;53.608;10.046;2022-09-09T15:03:50;18.50;99.90
592;DHT22;283;53.608;10.046;2022-09-09T15:06:19;18.50;99.90
592;DHT22;283;53.608;10.046;2022-09-09T15:08:51;18.50;99.90
592;DHT22;283;53.608;10.046;2022-09-09T15:11:20;18.50;99.90
592;DHT22;283;53.608;10.046;2022-09-09T15:13:51;18.50;99.90
592;DHT22;283;53.608;10.046;2022-09-09T15:16:22;18.50;99.90
592;DHT22;283;53.608;10.046;2022-09-09T15:18:51;18.50;99.90
592;DHT22;283;53.608;10.046;2022-09-09T15:21:21;18.50;99.90
592;DHT22;283;53.608;10.046;2022-09-09T15:23:51;18.50;99.90
592;DHT22;283;53.608;10.046;2022-09-09T15:26:19;18.50;99.90
592;DHT22;283;53.608;10.046;2022-09-09T15:28:48;18.50;99.90
592;DHT22;283;53.608;10.046;2022-09-09T15:31:17;18.50;99.90
592;DHT22;283;53.608;10.046;2022-09-09T15:33:49;18.50;99.90
592;DHT22;283;53.608;10.046;2022-09-09T15:36:18;18.50;99.90
592;DHT22;283;53.608;10.046;2022-09-09T15:38:47;18.60;99.90
592;DHT22;283;53.608;10.046;2022-09-09T15:41:17;18.70;99.90
592;DHT22;283;53.608;10.046;2022-09-09T15:43:48;18.70;99.90
592;DHT22;283;53.608;10.046;2022-09-09T15:46:28;18.70;99.90
592;DHT22;283;53.608;10.046;2022-09-09T15:48:58;18.80;99.90
592;DHT22;283;53.608;10.046;2022-09-09T15:51:26;18.80;99.90
592;DHT22;283;53.608;10.046;2022-09-09T15:54:09;18.90;99.90
592;DHT22;283;53.608;10.046;2022-09-09T15:56:40;18.90;99.90
592;DHT22;283;53.608;10.046;2022-09-09T15:59:09;19.00;99.90
592;DHT22;283;53.608;10.046;2022-09-09T16:01:38;19.00;99.90
592;DHT22;283;53.608;10.046;2022-09-09T16:04:06;19.00;99.90
592;DHT22;283;53.608;10.046;2022-09-09T16:06:34;19.00;99.90
592;DHT22;283;53.608;10.046;2022-09-09T16:09:05;19.10;99.90
592;DHT22;283;53.608;10.046;2022-09-09T16:11:35;19.10;99.90
592;DHT22;283;53.608;10.046;2022-09-09T16:14:04;19.10;99.90
592;DHT22;283;53.608;10.046;2022-09-09T16:16:34;19.20;99.90
592;DHT22;283;53.608;10.046;2022-09-09T16:19:04;19.20;99.90
592;DHT22;283;53.608;10.046;2022-09-09T16:21:34;19.20;99.90
592;DHT22;283;53.608;10.046;2022-09-09T16:24:03;19.20;99.90
592;DHT22;283;53.608;10.046;2022-09-09T16:26:33;19.30;99.90
592;DHT22;283;53.608;10.046;2022-09-09T16:29:05;19.30;99.90
592;DHT22;283;53.608;10.046;2022-09-09T16:31:33;19.20;99.90
592;DHT22;283;53.608;10.046;2022-09-09T16:34:02;19.20;99.90
592;DHT22;283;53.608;10.046;2022-09-09T16:36:32;19.20;99.90
592;DHT22;283;53.608;10.046;2022-09-09T16:39:03;19.10;99.90
592;DHT22;283;53.608;10.046;2022-09-09T16:41:31;19.00;99.90
592;DHT22;283;53.608;10.046;2022-09-09T16:44:00;19.00;99.90
592;DHT22;283;53.608;10.046;2022-09-09T16:46:32;18.90;99.90
592;DHT22;283;53.608;10.046;2022-09-09T16:49:02;18.90;99.90
592;DHT22;283;53.608;10.046;2022-09-09T16:51:33;18.80;99.90
592;DHT22;283;53.608;10.046;2022-09-09T16:54:02;18.70;99.90
592;DHT22;283;53.608;10.046;2022-09-09T16:56:31;18.60;99.90
592;DHT22;283;53.608;10.046;2022-09-09T16:59:02;18.50;99.90
592;DHT22;283;53.608;10.046;2022-09-09T17:01:33;18.40;99.90